Terminal Aerodrome Forecast
Issued by NWS

Home | Current Version | Previous Version | Text Only | Print | Product List | Glossary Off
Versions: 1 2 3 4 5 6 7 8 9 10 11 12 13 14 15 16 17 18 19

000
FTUS42 KMHX 060850 AAB
TAFPGV
TAF AMD
KPGV 060850Z 0609/0706 VRB02KT 5SM BR BKN009
     FM061300 21007KT P6SM SCT035
     FM061600 21009KT P6SM VCTS SCT040CB
     FM070000 19005KT P6SM BKN250
      AMD LTD TO CLD VIS AND WIND=

USA.gov is the U.S. government's official web portal to all federal, state and local government web resources and services.